sensor_id;sensor_type;location;lat;lon;timestamp;P1;durP1;ratioP1;P2;durP2;ratioP2
46781;SDS011;32541;46.298;11.506;2023-04-25T00:00:18;0.20;;;0.20;;
46781;SDS011;32541;46.298;11.506;2023-04-25T00:02:44;0.53;;;0.30;;
46781;SDS011;32541;46.298;11.506;2023-04-25T00:05:09;1.43;;;0.30;;
46781;SDS011;32541;46.298;11.506;2023-04-25T00:07:35;0.37;;;0.20;;
46781;SDS011;32541;46.298;11.506;2023-04-25T00:10:01;1.13;;;0.30;;
46781;SDS011;32541;46.298;11.506;2023-04-25T00:12:26;0.80;;;0.30;;
46781;SDS011;32541;46.298;11.506;2023-04-25T00:14:53;0.43;;;0.30;;
46781;SDS011;32541;46.298;11.506;2023-04-25T00:17:21;0.50;;;0.30;;
46781;SDS011;32541;46.298;11.506;2023-04-25T00:19:49;0.40;;;0.30;;
46781;SDS011;32541;46.298;11.506;2023-04-25T00:22:15;1.73;;;0.90;;
46781;SDS011;32541;46.298;11.506;2023-04-25T00:24:41;0.70;;;0.30;;
46781;SDS011;32541;46.298;11.506;2023-04-25T00:27:06;1.20;;;0.40;;
46781;SDS011;32541;46.298;11.506;2023-04-25T00:29:32;0.97;;;0.40;;
46781;SDS011;32541;46.298;11.506;2023-04-25T00:31:58;1.00;;;0.30;;
46781;SDS011;32541;46.298;11.506;2023-04-25T00:34:23;1.17;;;0.30;;
46781;SDS011;32541;46.298;11.506;2023-04-25T00:36:49;0.40;;;0.20;;
46781;SDS011;32541;46.298;11.506;2023-04-25T00:39:14;0.23;;;0.20;;
46781;SDS011;32541;46.298;11.506;2023-04-25T00:41:39;0.23;;;0.20;;
46781;SDS011;32541;46.298;11.506;2023-04-25T00:44:05;0.50;;;0.30;;
46781;SDS011;32541;46.298;11.506;2023-04-25T00:46:32;1.10;;;0.53;;
46781;SDS011;32541;46.298;11.506;2023-04-25T00:48:57;0.20;;;0.20;;
46781;SDS011;32541;46.298;11.506;2023-04-25T00:51:23;0.33;;;0.20;;
46781;SDS011;32541;46.298;11.506;2023-04-25T00:53:50;1.00;;;0.40;;
46781;SDS011;32541;46.298;11.506;2023-04-25T00:56:16;0.47;;;0.40;;
46781;SDS011;32541;46.298;11.506;2023-04-25T00:58:42;0.57;;;0.33;;
46781;SDS011;32541;46.298;11.506;2023-04-25T01:01:08;1.63;;;0.30;;
46781;SDS011;32541;46.298;11.506;2023-04-25T01:03:34;0.57;;;0.30;;
46781;SDS011;32541;46.298;11.506;2023-04-25T01:06:06;0.90;;;0.30;;
46781;SDS011;32541;46.298;11.506;2023-04-25T01:08:32;0.40;;;0.20;;
46781;SDS011;32541;46.298;11.506;2023-04-25T01:10:58;0.23;;;0.20;;
46781;SDS011;32541;46.298;11.506;2023-04-25T01:13:24;0.73;;;0.40;;
46781;SDS011;32541;46.298;11.506;2023-04-25T01:15:49;0.13;;;0.13;;
46781;SDS011;32541;46.298;11.506;2023-04-25T01:18:15;0.30;;;0.30;;
46781;SDS011;32541;46.298;11.506;2023-04-25T01:20:41;0.47;;;0.20;;
46781;SDS011;32541;46.298;11.506;2023-04-25T01:23:07;0.37;;;0.30;;
46781;SDS011;32541;46.298;11.506;2023-04-25T01:25:32;0.33;;;0.33;;
46781;SDS011;32541;46.298;11.506;2023-04-25T01:27:58;0.57;;;0.40;;
46781;SDS011;32541;46.298;11.506;2023-04-25T01:30:25;0.37;;;0.30;;
46781;SDS011;32541;46.298;11.506;2023-04-25T01:32:51;0.73;;;0.20;;
46781;SDS011;32541;46.298;11.506;2023-04-25T01:35:19;1.17;;;0.27;;
46781;SDS011;32541;46.298;11.506;2023-04-25T01:37:45;0.53;;;0.43;;
46781;SDS011;32541;46.298;11.506;2023-04-25T01:40:10;0.43;;;0.20;;
46781;SDS011;32541;46.298;11.506;2023-04-25T01:42:38;0.60;;;0.30;;
46781;SDS011;32541;46.298;11.506;2023-04-25T01:45:06;0.73;;;0.30;;
46781;SDS011;32541;46.298;11.506;2023-04-25T01:47:32;0.57;;;0.30;;
46781;SDS011;32541;46.298;11.506;2023-04-25T01:50:00;0.83;;;0.33;;
46781;SDS011;32541;46.298;11.506;2023-04-25T01:52:25;0.53;;;0.20;;
46781;SDS011;32541;46.298;11.506;2023-04-25T01:54:51;0.83;;;0.27;;
46781;SDS011;32541;46.298;11.506;2023-04-25T01:57:17;0.30;;;0.30;;
46781;SDS011;32541;46.298;11.506;2023-04-25T01:59:43;0.57;;;0.47;;
46781;SDS011;32541;46.298;11.506;2023-04-25T02:02:08;1.80;;;0.40;;
46781;SDS011;32541;46.298;11.506;2023-04-25T02:04:34;0.30;;;0.30;;
46781;SDS011;32541;46.298;11.506;2023-04-25T02:06:59;0.40;;;0.30;;
46781;SDS011;32541;46.298;11.506;2023-04-25T02:09:25;0.47;;;0.37;;
46781;SDS011;32541;46.298;11.506;2023-04-25T02:11:50;1.50;;;0.20;;
46781;SDS011;32541;46.298;11.506;2023-04-25T02:14:15;1.13;;;0.27;;
46781;SDS011;32541;46.298;11.506;2023-04-25T02:16:41;0.50;;;0.33;;
46781;SDS011;32541;46.298;11.506;2023-04-25T02:19:08;0.50;;;0.40;;
46781;SDS011;32541;46.298;11.506;2023-04-25T02:21:34;0.40;;;0.23;;
46781;SDS011;32541;46.298;11.506;2023-04-25T02:24:00;1.00;;;0.23;;
46781;SDS011;32541;46.298;11.506;2023-04-25T02:26:26;0.90;;;0.40;;
46781;SDS011;32541;46.298;11.506;2023-04-25T02:28:51;0.60;;;0.30;;
46781;SDS011;32541;46.298;11.506;2023-04-25T02:31:17;1.50;;;0.30;;
46781;SDS011;32541;46.298;11.506;2023-04-25T02:33:42;0.50;;;0.30;;
46781;SDS011;32541;46.298;11.506;2023-04-25T02:36:08;0.33;;;0.30;;
46781;SDS011;32541;46.298;11.506;2023-04-25T02:38:33;0.60;;;0.40;;
46781;SDS011;32541;46.298;11.506;2023-04-25T02:40:59;0.40;;;0.30;;
46781;SDS011;32541;46.298;11.506;2023-04-25T02:43:25;1.43;;;0.40;;
46781;SDS011;32541;46.298;11.506;2023-04-25T02:45:50;0.50;;;0.40;;
46781;SDS011;32541;46.298;11.506;2023-04-25T02:48:15;0.93;;;0.87;;
46781;SDS011;32541;46.298;11.506;2023-04-25T02:50:41;1.17;;;0.33;;
46781;SDS011;32541;46.298;11.506;2023-04-25T02:53:07;0.40;;;0.33;;
46781;SDS011;32541;46.298;11.506;2023-04-25T02:55:32;1.20;;;0.50;;
46781;SDS011;32541;46.298;11.506;2023-04-25T02:57:57;2.20;;;0.53;;
46781;SDS011;32541;46.298;11.506;2023-04-25T03:00:23;0.40;;;0.30;;
46781;SDS011;32541;46.298;11.506;2023-04-25T03:02:49;1.50;;;0.60;;
46781;SDS011;32541;46.298;11.506;2023-04-25T03:05:14;0.70;;;0.40;;
46781;SDS011;32541;46.298;11.506;2023-04-25T03:07:40;0.43;;;0.30;;
46781;SDS011;32541;46.298;11.506;2023-04-25T03:10:08;0.60;;;0.40;;
46781;SDS011;32541;46.298;11.506;2023-04-25T03:12:34;1.60;;;0.50;;
46781;SDS011;32541;46.298;11.506;2023-04-25T03:14:59;0.30;;;0.30;;
46781;SDS011;32541;46.298;11.506;2023-04-25T03:17:24;0.63;;;0.33;;
46781;SDS011;32541;46.298;11.506;2023-04-25T03:19:50;0.90;;;0.40;;
46781;SDS011;32541;46.298;11.506;2023-04-25T03:22:15;1.53;;;0.70;;
46781;SDS011;32541;46.298;11.506;2023-04-25T03:24:41;0.60;;;0.40;;
46781;SDS011;32541;46.298;11.506;2023-04-25T03:27:06;1.03;;;0.40;;
46781;SDS011;32541;46.298;11.506;2023-04-25T03:29:31;0.53;;;0.43;;
46781;SDS011;32541;46.298;11.506;2023-04-25T03:31:57;0.53;;;0.30;;
46781;SDS011;32541;46.298;11.506;2023-04-25T03:34:22;1.30;;;0.40;;
46781;SDS011;32541;46.298;11.506;2023-04-25T03:36:48;4.30;;;2.90;;
46781;SDS011;32541;46.298;11.506;2023-04-25T03:39:14;2.57;;;1.10;;
46781;SDS011;32541;46.298;11.506;2023-04-25T03:41:40;2.07;;;1.13;;
46781;SDS011;32541;46.298;11.506;2023-04-25T03:44:05;0.87;;;0.53;;
46781;SDS011;32541;46.298;11.506;2023-04-25T03:46:31;1.00;;;0.60;;
46781;SDS011;32541;46.298;11.506;2023-04-25T03:48:56;0.83;;;0.60;;
46781;SDS011;32541;46.298;11.506;2023-04-25T03:51:21;0.93;;;0.50;;
46781;SDS011;32541;46.298;11.506;2023-04-25T03:53:47;0.70;;;0.30;;
46781;SDS011;32541;46.298;11.506;2023-04-25T03:56:13;0.43;;;0.33;;
46781;SDS011;32541;46.298;11.506;2023-04-25T03:58:38;0.40;;;0.30;;
46781;SDS011;32541;46.298;11.506;2023-04-25T04:01:03;1.03;;;0.40;;
46781;SDS011;32541;46.298;11.506;2023-04-25T04:03:32;0.27;;;0.27;;
46781;SDS011;32541;46.298;11.506;2023-04-25T04:06:03;1.10;;;0.40;;
46781;SDS011;32541;46.298;11.506;2023-04-25T04:08:30;0.50;;;0.40;;
46781;SDS011;32541;46.298;11.506;2023-04-25T04:10:56;0.80;;;0.30;;
46781;SDS011;32541;46.298;11.506;2023-04-25T04:13:22;1.10;;;0.50;;
46781;SDS011;32541;46.298;11.506;2023-04-25T04:15:48;1.60;;;0.60;;
46781;SDS011;32541;46.298;11.506;2023-04-25T04:18:13;5.40;;;2.43;;
46781;SDS011;32541;46.298;11.506;2023-04-25T04:20:38;7.67;;;4.20;;
46781;SDS011;32541;46.298;11.506;2023-04-25T04:23:04;5.73;;;2.23;;
46781;SDS011;32541;46.298;11.506;2023-04-25T04:25:30;4.87;;;2.40;;
46781;SDS011;32541;46.298;11.506;2023-04-25T04:27:55;5.20;;;2.27;;
46781;SDS011;32541;46.298;11.506;2023-04-25T04:30:24;5.60;;;2.43;;
46781;SDS011;32541;46.298;11.506;2023-04-25T04:32:50;6.37;;;2.20;;
46781;SDS011;32541;46.298;11.506;2023-04-25T04:35:16;7.73;;;3.27;;
46781;SDS011;32541;46.298;11.506;2023-04-25T04:37:42;9.37;;;3.93;;
46781;SDS011;32541;46.298;11.506;2023-04-25T04:40:08;9.47;;;5.07;;
46781;SDS011;32541;46.298;11.506;2023-04-25T04:42:34;4.17;;;2.07;;
46781;SDS011;32541;46.298;11.506;2023-04-25T04:45:01;4.13;;;1.70;;
46781;SDS011;32541;46.298;11.506;2023-04-25T04:47:26;4.10;;;2.00;;
46781;SDS011;32541;46.298;11.506;2023-04-25T04:49:57;2.57;;;1.80;;
46781;SDS011;32541;46.298;11.506;2023-04-25T04:52:22;3.07;;;1.73;;
46781;SDS011;32541;46.298;11.506;2023-04-25T04:54:47;5.40;;;2.33;;
46781;SDS011;32541;46.298;11.506;2023-04-25T04:57:13;3.67;;;2.07;;
46781;SDS011;32541;46.298;11.506;2023-04-25T04:59:38;6.83;;;2.57;;
46781;SDS011;32541;46.298;11.506;2023-04-25T05:02:04;6.03;;;3.17;;
46781;SDS011;32541;46.298;11.506;2023-04-25T05:04:29;6.00;;;2.80;;
46781;SDS011;32541;46.298;11.506;2023-04-25T05:06:54;5.43;;;2.77;;
46781;SDS011;32541;46.298;11.506;2023-04-25T05:09:20;7.67;;;4.17;;
46781;SDS011;32541;46.298;11.506;2023-04-25T05:11:45;4.83;;;3.00;;
46781;SDS011;32541;46.298;11.506;2023-04-25T05:14:11;4.70;;;2.13;;
46781;SDS011;32541;46.298;11.506;2023-04-25T05:16:36;3.63;;;2.43;;
46781;SDS011;32541;46.298;11.506;2023-04-25T05:19:01;4.23;;;2.83;;
46781;SDS011;32541;46.298;11.506;2023-04-25T05:21:27;4.37;;;2.60;;
46781;SDS011;32541;46.298;11.506;2023-04-25T05:23:53;2.63;;;2.13;;
46781;SDS011;32541;46.298;11.506;2023-04-25T05:26:18;9.10;;;3.37;;
46781;SDS011;32541;46.298;11.506;2023-04-25T05:28:45;6.67;;;3.97;;
46781;SDS011;32541;46.298;11.506;2023-04-25T05:31:10;13.27;;;6.93;;
46781;SDS011;32541;46.298;11.506;2023-04-25T05:33:36;14.20;;;7.67;;
46781;SDS011;32541;46.298;11.506;2023-04-25T05:36:01;9.23;;;5.47;;
46781;SDS011;32541;46.298;11.506;2023-04-25T05:38:27;13.30;;;5.60;;
46781;SDS011;32541;46.298;11.506;2023-04-25T05:40:52;7.70;;;4.13;;
46781;SDS011;32541;46.298;11.506;2023-04-25T05:43:18;13.37;;;7.60;;
46781;SDS011;32541;46.298;11.506;2023-04-25T05:45:43;15.83;;;6.60;;
46781;SDS011;32541;46.298;11.506;2023-04-25T05:48:08;16.40;;;8.63;;
46781;SDS011;32541;46.298;11.506;2023-04-25T05:50:34;10.30;;;6.43;;
46781;SDS011;32541;46.298;11.506;2023-04-25T05:53:00;6.80;;;4.07;;
46781;SDS011;32541;46.298;11.506;2023-04-25T05:55:25;6.03;;;3.83;;
46781;SDS011;32541;46.298;11.506;2023-04-25T05:57:50;8.53;;;4.37;;
46781;SDS011;32541;46.298;11.506;2023-04-25T06:00:16;8.63;;;4.40;;
46781;SDS011;32541;46.298;11.506;2023-04-25T06:02:41;9.90;;;6.00;;
46781;SDS011;32541;46.298;11.506;2023-04-25T06:05:07;14.03;;;6.90;;
46781;SDS011;32541;46.298;11.506;2023-04-25T06:07:33;17.97;;;7.83;;
46781;SDS011;32541;46.298;11.506;2023-04-25T06:09:58;17.23;;;7.63;;
46781;SDS011;32541;46.298;11.506;2023-04-25T06:12:25;15.67;;;7.10;;
46781;SDS011;32541;46.298;11.506;2023-04-25T06:14:51;17.13;;;6.90;;
46781;SDS011;32541;46.298;11.506;2023-04-25T06:17:16;15.63;;;6.20;;
46781;SDS011;32541;46.298;11.506;2023-04-25T06:19:42;11.47;;;5.57;;
46781;SDS011;32541;46.298;11.506;2023-04-25T06:22:07;5.13;;;2.70;;
46781;SDS011;32541;46.298;11.506;2023-04-25T06:24:32;4.90;;;2.20;;
46781;SDS011;32541;46.298;11.506;2023-04-25T06:26:58;3.07;;;1.60;;
46781;SDS011;32541;46.298;11.506;2023-04-25T06:29:24;6.03;;;3.70;;
46781;SDS011;32541;46.298;11.506;2023-04-25T06:31:49;7.67;;;3.90;;
46781;SDS011;32541;46.298;11.506;2023-04-25T06:34:15;5.13;;;2.90;;
46781;SDS011;32541;46.298;11.506;2023-04-25T06:36:40;8.53;;;3.97;;
46781;SDS011;32541;46.298;11.506;2023-04-25T06:39:06;11.00;;;6.70;;
46781;SDS011;32541;46.298;11.506;2023-04-25T06:41:32;11.00;;;6.47;;
46781;SDS011;32541;46.298;11.506;2023-04-25T06:43:57;9.17;;;6.17;;
46781;SDS011;32541;46.298;11.506;2023-04-25T06:46:22;16.50;;;10.13;;
46781;SDS011;32541;46.298;11.506;2023-04-25T06:48:48;10.37;;;5.57;;
46781;SDS011;32541;46.298;11.506;2023-04-25T06:51:13;6.67;;;3.00;;
46781;SDS011;32541;46.298;11.506;2023-04-25T06:53:39;7.77;;;3.60;;
46781;SDS011;32541;46.298;11.506;2023-04-25T06:56:05;5.07;;;3.10;;
46781;SDS011;32541;46.298;11.506;2023-04-25T06:58:31;5.40;;;2.87;;
46781;SDS011;32541;46.298;11.506;2023-04-25T07:00:56;4.43;;;2.93;;
46781;SDS011;32541;46.298;11.506;2023-04-25T07:03:22;5.10;;;2.50;;
46781;SDS011;32541;46.298;11.506;2023-04-25T07:05:47;7.50;;;4.00;;
46781;SDS011;32541;46.298;11.506;2023-04-25T07:08:12;5.93;;;3.77;;
46781;SDS011;32541;46.298;11.506;2023-04-25T07:10:38;6.30;;;3.40;;
46781;SDS011;32541;46.298;11.506;2023-04-25T07:13:03;11.10;;;3.40;;
46781;SDS011;32541;46.298;11.506;2023-04-25T07:15:28;3.73;;;2.30;;
46781;SDS011;32541;46.298;11.506;2023-04-25T07:17:54;5.17;;;2.30;;
46781;SDS011;32541;46.298;11.506;2023-04-25T07:20:19;4.20;;;2.33;;
46781;SDS011;32541;46.298;11.506;2023-04-25T07:22:44;3.47;;;2.50;;
46781;SDS011;32541;46.298;11.506;2023-04-25T07:25:10;5.35;;;2.38;;
46781;SDS011;32541;46.298;11.506;2023-04-25T07:27:35;5.30;;;2.63;;
46781;SDS011;32541;46.298;11.506;2023-04-25T07:30:01;2.25;;;1.70;;
46781;SDS011;32541;46.298;11.506;2023-04-25T07:32:28;3.35;;;1.88;;
46781;SDS011;32541;46.298;11.506;2023-04-25T07:34:53;5.45;;;2.28;;
46781;SDS011;32541;46.298;11.506;2023-04-25T07:37:19;2.80;;;1.52;;
46781;SDS011;32541;46.298;11.506;2023-04-25T07:39:44;2.60;;;1.52;;
46781;SDS011;32541;46.298;11.506;2023-04-25T07:42:13;4.65;;;2.85;;
46781;SDS011;32541;46.298;11.506;2023-04-25T07:44:38;5.57;;;2.70;;
46781;SDS011;32541;46.298;11.506;2023-04-25T07:47:05;5.38;;;3.10;;
46781;SDS011;32541;46.298;11.506;2023-04-25T07:49:37;1.48;;;1.00;;
46781;SDS011;32541;46.298;11.506;2023-04-25T07:52:03;1.75;;;1.10;;
46781;SDS011;32541;46.298;11.506;2023-04-25T07:54:29;1.98;;;1.30;;
46781;SDS011;32541;46.298;11.506;2023-04-25T07:56:55;2.15;;;1.30;;
46781;SDS011;32541;46.298;11.506;2023-04-25T07:59:20;0.77;;;0.50;;
46781;SDS011;32541;46.298;11.506;2023-04-25T08:01:46;4.45;;;1.02;;
46781;SDS011;32541;46.298;11.506;2023-04-25T08:04:12;2.10;;;1.05;;
46781;SDS011;32541;46.298;11.506;2023-04-25T08:06:37;1.80;;;1.00;;
46781;SDS011;32541;46.298;11.506;2023-04-25T08:09:02;3.97;;;1.33;;
46781;SDS011;32541;46.298;11.506;2023-04-25T08:11:29;10.05;;;7.45;;
46781;SDS011;32541;46.298;11.506;2023-04-25T08:13:54;1.45;;;0.85;;
46781;SDS011;32541;46.298;11.506;2023-04-25T08:16:20;1.00;;;0.60;;
46781;SDS011;32541;46.298;11.506;2023-04-25T08:18:46;1.27;;;0.75;;
46781;SDS011;32541;46.298;11.506;2023-04-25T08:21:12;1.00;;;0.60;;
46781;SDS011;32541;46.298;11.506;2023-04-25T08:23:37;2.28;;;0.80;;
46781;SDS011;32541;46.298;11.506;2023-04-25T08:26:03;0.90;;;0.65;;
46781;SDS011;32541;46.298;11.506;2023-04-25T08:28:30;1.23;;;0.70;;
46781;SDS011;32541;46.298;11.506;2023-04-25T08:30:55;1.27;;;0.93;;
46781;SDS011;32541;46.298;11.506;2023-04-25T08:33:20;1.40;;;0.60;;
46781;SDS011;32541;46.298;11.506;2023-04-25T08:35:46;1.40;;;0.82;;
46781;SDS011;32541;46.298;11.506;2023-04-25T08:38:11;1.35;;;0.75;;
46781;SDS011;32541;46.298;11.506;2023-04-25T08:40:37;0.77;;;0.63;;
46781;SDS011;32541;46.298;11.506;2023-04-25T08:43:04;5.25;;;1.48;;
46781;SDS011;32541;46.298;11.506;2023-04-25T08:45:36;1.48;;;0.70;;
46781;SDS011;32541;46.298;11.506;2023-04-25T08:48:04;2.05;;;0.90;;
46781;SDS011;32541;46.298;11.506;2023-04-25T08:50:32;1.35;;;1.05;;
46781;SDS011;32541;46.298;11.506;2023-04-25T08:52:59;2.45;;;0.82;;
46781;SDS011;32541;46.298;11.506;2023-04-25T08:55:29;2.92;;;0.70;;
46781;SDS011;32541;46.298;11.506;2023-04-25T08:57:55;1.25;;;0.70;;
46781;SDS011;32541;46.298;11.506;2023-04-25T09:00:21;1.50;;;0.90;;
46781;SDS011;32541;46.298;11.506;2023-04-25T09:02:47;1.58;;;0.80;;
46781;SDS011;32541;46.298;11.506;2023-04-25T09:05:13;1.45;;;0.88;;
46781;SDS011;32541;46.298;11.506;2023-04-25T09:07:39;1.42;;;1.08;;
46781;SDS011;32541;46.298;11.506;2023-04-25T09:10:05;1.98;;;0.70;;
46781;SDS011;32541;46.298;11.506;2023-04-25T09:12:30;10.85;;;5.47;;
46781;SDS011;32541;46.298;11.506;2023-04-25T09:15:17;2.88;;;1.35;;
46781;SDS011;32541;46.298;11.506;2023-04-25T09:17:42;1.10;;;0.75;;
46781;SDS011;32541;46.298;11.506;2023-04-25T09:20:10;3.65;;;0.73;;
46781;SDS011;32541;46.298;11.506;2023-04-25T09:22:37;4.50;;;0.70;;
46781;SDS011;32541;46.298;11.506;2023-04-25T09:25:12;0.93;;;0.70;;
46781;SDS011;32541;46.298;11.506;2023-04-25T09:27:49;1.70;;;1.00;;
46781;SDS011;32541;46.298;11.506;2023-04-25T09:30:16;0.52;;;0.40;;
46781;SDS011;32541;46.298;11.506;2023-04-25T09:32:42;1.05;;;0.50;;
46781;SDS011;32541;46.298;11.506;2023-04-25T09:35:08;1.88;;;0.70;;
46781;SDS011;32541;46.298;11.506;2023-04-25T09:37:34;0.80;;;0.60;;
46781;SDS011;32541;46.298;11.506;2023-04-25T09:40:00;1.52;;;0.73;;
46781;SDS011;32541;46.298;11.506;2023-04-25T09:42:30;4.05;;;1.52;;
46781;SDS011;32541;46.298;11.506;2023-04-25T09:44:57;1.88;;;0.35;;
46781;SDS011;32541;46.298;11.506;2023-04-25T09:47:24;0.68;;;0.38;;
46781;SDS011;32541;46.298;11.506;2023-04-25T09:49:51;0.77;;;0.60;;
46781;SDS011;32541;46.298;11.506;2023-04-25T09:52:18;1.85;;;0.60;;
46781;SDS011;32541;46.298;11.506;2023-04-25T09:54:48;0.60;;;0.40;;
46781;SDS011;32541;46.298;11.506;2023-04-25T09:57:18;0.70;;;0.40;;
46781;SDS011;32541;46.298;11.506;2023-04-25T09:59:48;0.52;;;0.38;;
46781;SDS011;32541;46.298;11.506;2023-04-25T10:02:16;0.35;;;0.32;;
46781;SDS011;32541;46.298;11.506;2023-04-25T10:04:47;0.65;;;0.30;;
46781;SDS011;32541;46.298;11.506;2023-04-25T10:07:15;0.63;;;0.30;;
46781;SDS011;32541;46.298;11.506;2023-04-25T10:09:42;0.93;;;0.40;;
46781;SDS011;32541;46.298;11.506;2023-04-25T10:12:10;0.57;;;0.30;;
46781;SDS011;32541;46.298;11.506;2023-04-25T10:14:36;0.70;;;0.43;;
46781;SDS011;32541;46.298;11.506;2023-04-25T10:17:02;0.85;;;0.50;;
46781;SDS011;32541;46.298;11.506;2023-04-25T10:19:28;0.55;;;0.43;;
46781;SDS011;32541;46.298;11.506;2023-04-25T10:24:43;0.90;;;0.80;;
46781;SDS011;32541;46.298;11.506;2023-04-25T10:27:11;1.05;;;0.50;;
46781;SDS011;32541;46.298;11.506;2023-04-25T10:29:37;0.98;;;0.40;;
46781;SDS011;32541;46.298;11.506;2023-04-25T10:32:03;0.82;;;0.73;;
46781;SDS011;32541;46.298;11.506;2023-04-25T10:34:39;1.73;;;0.40;;
46781;SDS011;32541;46.298;11.506;2023-04-25T10:37:08;1.10;;;0.50;;
46781;SDS011;32541;46.298;11.506;2023-04-25T10:39:38;0.80;;;0.60;;
46781;SDS011;32541;46.298;11.506;2023-04-25T10:42:05;1.75;;;0.40;;
46781;SDS011;32541;46.298;11.506;2023-04-25T10:44:32;0.60;;;0.40;;
46781;SDS011;32541;46.298;11.506;2023-04-25T10:47:01;1.30;;;0.50;;
46781;SDS011;32541;46.298;11.506;2023-04-25T10:49:32;0.93;;;0.60;;
46781;SDS011;32541;46.298;11.506;2023-04-25T10:52:12;0.70;;;0.50;;
46781;SDS011;32541;46.298;11.506;2023-04-25T10:54:41;1.48;;;0.60;;
46781;SDS011;32541;46.298;11.506;2023-04-25T10:57:07;1.40;;;0.47;;
46781;SDS011;32541;46.298;11.506;2023-04-25T10:59:50;0.70;;;0.38;;
46781;SDS011;32541;46.298;11.506;2023-04-25T11:02:16;1.38;;;0.50;;
46781;SDS011;32541;46.298;11.506;2023-04-25T11:04:41;0.50;;;0.40;;
46781;SDS011;32541;46.298;11.506;2023-04-25T11:10:00;0.60;;;0.40;;
46781;SDS011;32541;46.298;11.506;2023-04-25T11:12:29;1.15;;;0.55;;
46781;SDS011;32541;46.298;11.506;2023-04-25T11:15:00;0.50;;;0.40;;
46781;SDS011;32541;46.298;11.506;2023-04-25T11:17:35;10.57;;;7.18;;
46781;SDS011;32541;46.298;11.506;2023-04-25T11:20:00;2.95;;;2.10;;
46781;SDS011;32541;46.298;11.506;2023-04-25T11:22:27;2.58;;;1.40;;
46781;SDS011;32541;46.298;11.506;2023-04-25T11:24:53;0.85;;;0.50;;
46781;SDS011;32541;46.298;11.506;2023-04-25T11:27:18;1.55;;;0.60;;
46781;SDS011;32541;46.298;11.506;2023-04-25T11:29:44;0.80;;;0.30;;
46781;SDS011;32541;46.298;11.506;2023-04-25T11:32:13;1.20;;;0.52;;
46781;SDS011;32541;46.298;11.506;2023-04-25T11:34:42;5.97;;;2.97;;
46781;SDS011;32541;46.298;11.506;2023-04-25T11:37:09;10.13;;;7.60;;
46781;SDS011;32541;46.298;11.506;2023-04-25T11:39:36;2.38;;;1.95;;
46781;SDS011;32541;46.298;11.506;2023-04-25T11:42:02;1.90;;;1.30;;
46781;SDS011;32541;46.298;11.506;2023-04-25T11:44:30;0.50;;;0.45;;
46781;SDS011;32541;46.298;11.506;2023-04-25T11:46:56;2.60;;;0.40;;
46781;SDS011;32541;46.298;11.506;2023-04-25T11:49:21;1.20;;;0.45;;
46781;SDS011;32541;46.298;11.506;2023-04-25T11:51:47;1.23;;;0.30;;
46781;SDS011;32541;46.298;11.506;2023-04-25T11:54:13;0.57;;;0.20;;
46781;SDS011;32541;46.298;11.506;2023-04-25T11:56:43;0.85;;;0.50;;
46781;SDS011;32541;46.298;11.506;2023-04-25T11:59:09;0.73;;;0.30;;
46781;SDS011;32541;46.298;11.506;2023-04-25T12:01:36;0.50;;;0.30;;
46781;SDS011;32541;46.298;11.506;2023-04-25T12:04:16;0.40;;;0.30;;
46781;SDS011;32541;46.298;11.506;2023-04-25T12:06:45;1.17;;;0.40;;
46781;SDS011;32541;46.298;11.506;2023-04-25T12:09:12;1.08;;;0.20;;
46781;SDS011;32541;46.298;11.506;2023-04-25T12:11:45;1.02;;;0.40;;
46781;SDS011;32541;46.298;11.506;2023-04-25T12:14:24;0.60;;;0.40;;
46781;SDS011;32541;46.298;11.506;2023-04-25T12:16:55;1.20;;;0.45;;
46781;SDS011;32541;46.298;11.506;2023-04-25T12:19:22;0.38;;;0.35;;
46781;SDS011;32541;46.298;11.506;2023-04-25T12:21:48;0.40;;;0.20;;
46781;SDS011;32541;46.298;11.506;2023-04-25T12:24:18;1.30;;;0.20;;
46781;SDS011;32541;46.298;11.506;2023-04-25T12:29:28;8.60;;;7.10;;
46781;SDS011;32541;46.298;11.506;2023-04-25T12:31:55;0.80;;;0.68;;
46781;SDS011;32541;46.298;11.506;2023-04-25T12:34:21;1.90;;;1.77;;
46781;SDS011;32541;46.298;11.506;2023-04-25T12:36:48;2.22;;;2.05;;
46781;SDS011;32541;46.298;11.506;2023-04-25T12:39:16;1.23;;;1.13;;
46781;SDS011;32541;46.298;11.506;2023-04-25T12:41:47;0.50;;;0.32;;
46781;SDS011;32541;46.298;11.506;2023-04-25T12:44:16;0.52;;;0.35;;
46781;SDS011;32541;46.298;11.506;2023-04-25T12:46:42;1.23;;;0.40;;
46781;SDS011;32541;46.298;11.506;2023-04-25T12:49:07;0.50;;;0.20;;
46781;SDS011;32541;46.298;11.506;2023-04-25T12:51:33;0.38;;;0.30;;
46781;SDS011;32541;46.298;11.506;2023-04-25T12:54:02;0.60;;;0.30;;
46781;SDS011;32541;46.298;11.506;2023-04-25T12:56:29;0.20;;;0.20;;
46781;SDS011;32541;46.298;11.506;2023-04-25T12:58:56;0.82;;;0.30;;
46781;SDS011;32541;46.298;11.506;2023-04-25T13:01:21;1.30;;;0.28;;
46781;SDS011;32541;46.298;11.506;2023-04-25T13:03:47;3.50;;;0.77;;
46781;SDS011;32541;46.298;11.506;2023-04-25T13:06:14;0.55;;;0.50;;
46781;SDS011;32541;46.298;11.506;2023-04-25T13:08:40;1.17;;;0.65;;
46781;SDS011;32541;46.298;11.506;2023-04-25T13:11:06;0.75;;;0.30;;
46781;SDS011;32541;46.298;11.506;2023-04-25T13:13:32;1.70;;;0.13;;
46781;SDS011;32541;46.298;11.506;2023-04-25T13:15:59;0.00;;;0.00;;
46781;SDS011;32541;46.298;11.506;2023-04-25T13:18:24;0.77;;;0.30;;
46781;SDS011;32541;46.298;11.506;2023-04-25T13:20:52;1.45;;;0.30;;
46781;SDS011;32541;46.298;11.506;2023-04-25T13:23:18;0.50;;;0.20;;
46781;SDS011;32541;46.298;11.506;2023-04-25T13:25:43;1.42;;;0.38;;
46781;SDS011;32541;46.298;11.506;2023-04-25T13:28:10;0.80;;;0.50;;
46781;SDS011;32541;46.298;11.506;2023-04-25T13:30:35;4.03;;;1.75;;
46781;SDS011;32541;46.298;11.506;2023-04-25T13:33:01;0.40;;;0.30;;
46781;SDS011;32541;46.298;11.506;2023-04-25T13:35:28;1.33;;;1.02;;
46781;SDS011;32541;46.298;11.506;2023-04-25T13:37:55;1.58;;;1.05;;
46781;SDS011;32541;46.298;11.506;2023-04-25T13:40:20;9.32;;;5.40;;
46781;SDS011;32541;46.298;11.506;2023-04-25T13:42:46;6.88;;;4.05;;
46781;SDS011;32541;46.298;11.506;2023-04-25T13:45:11;1.83;;;0.70;;
46781;SDS011;32541;46.298;11.506;2023-04-25T13:47:37;0.93;;;0.77;;
46781;SDS011;32541;46.298;11.506;2023-04-25T13:50:03;0.60;;;0.40;;
46781;SDS011;32541;46.298;11.506;2023-04-25T13:52:30;0.70;;;0.50;;
46781;SDS011;32541;46.298;11.506;2023-04-25T13:54:56;0.88;;;0.60;;
46781;SDS011;32541;46.298;11.506;2023-04-25T13:57:22;0.77;;;0.52;;
46781;SDS011;32541;46.298;11.506;2023-04-25T13:59:47;1.25;;;0.50;;
46781;SDS011;32541;46.298;11.506;2023-04-25T14:02:12;2.20;;;0.77;;
46781;SDS011;32541;46.298;11.506;2023-04-25T14:04:38;1.30;;;0.52;;
46781;SDS011;32541;46.298;11.506;2023-04-25T14:07:03;0.77;;;0.55;;
46781;SDS011;32541;46.298;11.506;2023-04-25T14:09:29;1.17;;;0.70;;
46781;SDS011;32541;46.298;11.506;2023-04-25T14:11:55;1.77;;;1.40;;
46781;SDS011;32541;46.298;11.506;2023-04-25T14:14:21;0.85;;;0.50;;
46781;SDS011;32541;46.298;11.506;2023-04-25T14:16:48;0.50;;;0.50;;
46781;SDS011;32541;46.298;11.506;2023-04-25T14:19:15;0.50;;;0.20;;
46781;SDS011;32541;46.298;11.506;2023-04-25T14:21:41;2.00;;;0.50;;
46781;SDS011;32541;46.298;11.506;2023-04-25T14:24:08;1.38;;;0.60;;
46781;SDS011;32541;46.298;11.506;2023-04-25T14:26:33;1.02;;;0.50;;
46781;SDS011;32541;46.298;11.506;2023-04-25T14:29:00;0.57;;;0.50;;
46781;SDS011;32541;46.298;11.506;2023-04-25T14:31:26;0.60;;;0.43;;
46781;SDS011;32541;46.298;11.506;2023-04-25T14:33:51;2.80;;;0.52;;
46781;SDS011;32541;46.298;11.506;2023-04-25T14:36:16;1.77;;;1.23;;